KTDZ/TDZ METAR and TAF weather

Enter ICAO airport designator
Station Type Date Time Source
KTDZ METAR 2020/10/29 15:53 UTC NOAA

KTDZ 291553Z AUTO 04005KT 10SM OVC085 08/04 A2976 RMK AO2 RAE25 SLP078 P0000 T00830039


Station Type Date Time Source
KTDZ Decoded METAR 2020/10/29 15:53 UTC NOAA

TOLEDO METCALF FIELD, OH, United States (KTDZ) 41-34N 83-29W 189M
Oct 29, 2020 - 11:53 AM EDT / 2020.10.29 1553 UTC
Wind: from the NE (040 degrees) at 6 MPH (5 KT):0
Visibility: 10 mile(s):0
Sky conditions: overcast
Precipitation last hour: A trace
Temperature: 46.9 F (8.3 C)
Dew Point: 39.0 F (3.9 C)
Relative Humidity: 73%
Pressure (altimeter): 29.76 in. Hg (1007 hPa)
ob: KTDZ 291553Z AUTO 04005KT 10SM OVC085 08/04 A2976 RMK AO2 RAE25 SLP078 P0000 T00830039
cycle: 16

Station Type Date Time Source
KTDZ TAF UTC NOAA

Error!

Example: see airport list